sensor_id;sensor_type;location;lat;lon;timestamp;temperature;humidity
40848;DHT22;26570;50.962;5.340;2023-08-01T00:03:55;18.60;99.90
40848;DHT22;26570;50.962;5.340;2023-08-01T00:07:08;18.60;99.90
40848;DHT22;26570;50.962;5.340;2023-08-01T00:10:09;18.50;99.90
40848;DHT22;26570;50.962;5.340;2023-08-01T00:13:03;18.70;99.90
40848;DHT22;26570;50.962;5.340;2023-08-01T00:16:40;18.40;99.90
40848;DHT22;26570;50.962;5.340;2023-08-01T00:19:54;18.60;99.90
40848;DHT22;26570;50.962;5.340;2023-08-01T00:23:11;18.50;99.90
40848;DHT22;26570;50.962;5.340;2023-08-01T00:26:38;18.50;99.90
40848;DHT22;26570;50.962;5.340;2023-08-01T00:29:32;18.20;99.90
40848;DHT22;26570;50.962;5.340;2023-08-01T00:32:50;18.30;99.90
40848;DHT22;26570;50.962;5.340;2023-08-01T00:36:22;18.40;99.90
40848;DHT22;26570;50.962;5.340;2023-08-01T00:39:15;18.40;99.90
40848;DHT22;26570;50.962;5.340;2023-08-01T00:42:49;18.30;99.90
40848;DHT22;26570;50.962;5.340;2023-08-01T00:45:47;18.20;99.90
40848;DHT22;26570;50.962;5.340;2023-08-01T00:49:04;18.20;99.90
40848;DHT22;26570;50.962;5.340;2023-08-01T00:52:36;18.20;99.90
40848;DHT22;26570;50.962;5.340;2023-08-01T00:56:14;18.30;99.90
40848;DHT22;26570;50.962;5.340;2023-08-01T00:59:41;18.30;99.90
40848;DHT22;26570;50.962;5.340;2023-08-01T01:02:52;18.10;99.90
40848;DHT22;26570;50.962;5.340;2023-08-01T01:09:41;18.00;99.90
40848;DHT22;26570;50.962;5.340;2023-08-01T01:13:28;17.90;99.90
40848;DHT22;26570;50.962;5.340;2023-08-01T01:16:19;17.90;99.90
40848;DHT22;26570;50.962;5.340;2023-08-01T01:19:32;17.90;99.90
40848;DHT22;26570;50.962;5.340;2023-08-01T01:22:22;17.80;99.90
40848;DHT22;26570;50.962;5.340;2023-08-01T01:25:22;17.70;99.90
40848;DHT22;26570;50.962;5.340;2023-08-01T01:28:14;17.60;99.90
40848;DHT22;26570;50.962;5.340;2023-08-01T01:31:56;17.60;99.90
40848;DHT22;26570;50.962;5.340;2023-08-01T01:35:42;17.70;99.90
40848;DHT22;26570;50.962;5.340;2023-08-01T01:38:54;17.60;99.90
40848;DHT22;26570;50.962;5.340;2023-08-01T01:41:55;17.70;99.90
40848;DHT22;26570;50.962;5.340;2023-08-01T01:44:47;17.60;99.90
40848;DHT22;26570;50.962;5.340;2023-08-01T01:51:55;17.50;99.90
40848;DHT22;26570;50.962;5.340;2023-08-01T01:55:16;17.40;99.90
40848;DHT22;26570;50.962;5.340;2023-08-01T01:58:10;17.30;99.90
40848;DHT22;26570;50.962;5.340;2023-08-01T02:01:29;17.10;99.90
40848;DHT22;26570;50.962;5.340;2023-08-01T02:04:38;17.20;99.90
40848;DHT22;26570;50.962;5.340;2023-08-01T02:11:23;17.20;99.90
40848;DHT22;26570;50.962;5.340;2023-08-01T02:14:20;17.10;99.90
40848;DHT22;26570;50.962;5.340;2023-08-01T02:17:12;17.10;99.90
40848;DHT22;26570;50.962;5.340;2023-08-01T02:20:06;17.10;99.90
40848;DHT22;26570;50.962;5.340;2023-08-01T02:23:32;16.90;99.90
40848;DHT22;26570;50.962;5.340;2023-08-01T02:26:26;17.10;99.90
40848;DHT22;26570;50.962;5.340;2023-08-01T02:29:32;17.00;99.90
40848;DHT22;26570;50.962;5.340;2023-08-01T02:33:04;17.00;99.90
40848;DHT22;26570;50.962;5.340;2023-08-01T02:36:41;17.00;99.90
40848;DHT22;26570;50.962;5.340;2023-08-01T02:40:00;17.00;99.90
40848;DHT22;26570;50.962;5.340;2023-08-01T02:43:48;17.00;99.90
40848;DHT22;26570;50.962;5.340;2023-08-01T02:47:07;16.90;99.90
40848;DHT22;26570;50.962;5.340;2023-08-01T02:50:24;16.90;99.90
40848;DHT22;26570;50.962;5.340;2023-08-01T02:53:44;16.80;99.90
40848;DHT22;26570;50.962;5.340;2023-08-01T03:01:05;16.90;99.90
40848;DHT22;26570;50.962;5.340;2023-08-01T03:04:00;17.00;99.90
40848;DHT22;26570;50.962;5.340;2023-08-01T03:07:33;17.00;99.90
40848;DHT22;26570;50.962;5.340;2023-08-01T03:11:02;16.90;99.90
40848;DHT22;26570;50.962;5.340;2023-08-01T03:13:56;17.20;99.90
40848;DHT22;26570;50.962;5.340;2023-08-01T03:17:25;17.00;99.90
40848;DHT22;26570;50.962;5.340;2023-08-01T03:20:42;17.10;99.90
40848;DHT22;26570;50.962;5.340;2023-08-01T03:23:36;17.10;99.90
40848;DHT22;26570;50.962;5.340;2023-08-01T03:26:37;17.10;99.90
40848;DHT22;26570;50.962;5.340;2023-08-01T03:29:54;17.00;99.90
40848;DHT22;26570;50.962;5.340;2023-08-01T03:32:55;17.10;99.90
40848;DHT22;26570;50.962;5.340;2023-08-01T03:36:14;16.90;99.90
40848;DHT22;26570;50.962;5.340;2023-08-01T03:39:07;17.00;99.90
40848;DHT22;26570;50.962;5.340;2023-08-01T03:42:09;17.10;99.90
40848;DHT22;26570;50.962;5.340;2023-08-01T03:48:58;16.80;99.90
40848;DHT22;26570;50.962;5.340;2023-08-01T03:52:18;17.10;99.90
40848;DHT22;26570;50.962;5.340;2023-08-01T03:58:41;17.10;99.90
40848;DHT22;26570;50.962;5.340;2023-08-01T04:01:31;17.10;99.90
40848;DHT22;26570;50.962;5.340;2023-08-01T04:04:23;17.00;99.90
40848;DHT22;26570;50.962;5.340;2023-08-01T04:07:47;16.90;99.90
40848;DHT22;26570;50.962;5.340;2023-08-01T04:14:29;17.00;99.90
40848;DHT22;26570;50.962;5.340;2023-08-01T04:17:21;16.90;99.90
40848;DHT22;26570;50.962;5.340;2023-08-01T04:24:12;17.00;99.90
40848;DHT22;26570;50.962;5.340;2023-08-01T04:27:27;17.00;99.90
40848;DHT22;26570;50.962;5.340;2023-08-01T04:30:59;16.80;99.90
40848;DHT22;26570;50.962;5.340;2023-08-01T04:37:18;16.70;99.90
40848;DHT22;26570;50.962;5.340;2023-08-01T04:40:42;16.80;99.90
40848;DHT22;26570;50.962;5.340;2023-08-01T04:44:35;16.90;99.90
40848;DHT22;26570;50.962;5.340;2023-08-01T04:47:50;16.80;99.90
40848;DHT22;26570;50.962;5.340;2023-08-01T04:50:44;16.90;99.90
40848;DHT22;26570;50.962;5.340;2023-08-01T04:54:26;17.00;99.90
40848;DHT22;26570;50.962;5.340;2023-08-01T04:58:03;16.90;99.90
40848;DHT22;26570;50.962;5.340;2023-08-01T05:01:50;16.90;99.90
40848;DHT22;26570;50.962;5.340;2023-08-01T05:05:07;16.90;99.90
40848;DHT22;26570;50.962;5.340;2023-08-01T05:08:19;16.90;99.90
40848;DHT22;26570;50.962;5.340;2023-08-01T05:14:59;16.70;99.90
40848;DHT22;26570;50.962;5.340;2023-08-01T05:17:52;16.90;99.90
40848;DHT22;26570;50.962;5.340;2023-08-01T05:20:52;17.00;99.90
40848;DHT22;26570;50.962;5.340;2023-08-01T05:24:14;17.10;99.90
40848;DHT22;26570;50.962;5.340;2023-08-01T05:31:33;16.90;99.90
40848;DHT22;26570;50.962;5.340;2023-08-01T05:34:44;17.20;99.90
40848;DHT22;26570;50.962;5.340;2023-08-01T05:38:11;17.20;99.90
40848;DHT22;26570;50.962;5.340;2023-08-01T05:41:32;17.10;99.90
40848;DHT22;26570;50.962;5.340;2023-08-01T05:45:15;17.00;99.90
40848;DHT22;26570;50.962;5.340;2023-08-01T05:52:03;17.40;99.90
40848;DHT22;26570;50.962;5.340;2023-08-01T05:58:52;17.10;99.90
40848;DHT22;26570;50.962;5.340;2023-08-01T06:02:24;17.30;99.90
40848;DHT22;26570;50.962;5.340;2023-08-01T06:09:46;17.30;99.90
40848;DHT22;26570;50.962;5.340;2023-08-01T06:13:27;17.40;99.90
40848;DHT22;26570;50.962;5.340;2023-08-01T06:16:34;17.50;99.90
40848;DHT22;26570;50.962;5.340;2023-08-01T06:19:52;17.60;99.90
40848;DHT22;26570;50.962;5.340;2023-08-01T06:23:37;17.70;99.90
40848;DHT22;26570;50.962;5.340;2023-08-01T06:26:38;17.60;99.90
40848;DHT22;26570;50.962;5.340;2023-08-01T06:30:11;17.60;99.90
40848;DHT22;26570;50.962;5.340;2023-08-01T06:37:05;17.80;99.90
40848;DHT22;26570;50.962;5.340;2023-08-01T06:40:15;17.80;99.90
40848;DHT22;26570;50.962;5.340;2023-08-01T06:43:10;17.80;99.90
40848;DHT22;26570;50.962;5.340;2023-08-01T06:47:14;17.90;99.90
40848;DHT22;26570;50.962;5.340;2023-08-01T06:50:41;18.10;99.90
40848;DHT22;26570;50.962;5.340;2023-08-01T06:53:56;18.20;99.90
40848;DHT22;26570;50.962;5.340;2023-08-01T06:56:53;18.30;99.90
40848;DHT22;26570;50.962;5.340;2023-08-01T07:00:16;18.30;99.90
40848;DHT22;26570;50.962;5.340;2023-08-01T07:03:31;18.30;99.90
40848;DHT22;26570;50.962;5.340;2023-08-01T07:07:01;18.20;99.90
40848;DHT22;26570;50.962;5.340;2023-08-01T07:09:55;18.10;99.90
40848;DHT22;26570;50.962;5.340;2023-08-01T07:12:51;18.40;99.90
40848;DHT22;26570;50.962;5.340;2023-08-01T07:16:13;18.20;99.90
40848;DHT22;26570;50.962;5.340;2023-08-01T07:19:04;18.00;99.90
40848;DHT22;26570;50.962;5.340;2023-08-01T07:21:56;18.20;99.90
40848;DHT22;26570;50.962;5.340;2023-08-01T07:25:27;18.10;99.90
40848;DHT22;26570;50.962;5.340;2023-08-01T07:28:43;18.30;99.90
40848;DHT22;26570;50.962;5.340;2023-08-01T07:32:14;18.60;99.90
40848;DHT22;26570;50.962;5.340;2023-08-01T07:40:08;19.90;99.90
40848;DHT22;26570;50.962;5.340;2023-08-01T07:43:28;21.50;99.90
40848;DHT22;26570;50.962;5.340;2023-08-01T07:46:56;22.40;99.90
40848;DHT22;26570;50.962;5.340;2023-08-01T07:53:29;21.80;99.90
40848;DHT22;26570;50.962;5.340;2023-08-01T07:56:24;21.80;99.90
40848;DHT22;26570;50.962;5.340;2023-08-01T07:59:41;21.90;99.90
40848;DHT22;26570;50.962;5.340;2023-08-01T08:02:59;21.60;99.90
40848;DHT22;26570;50.962;5.340;2023-08-01T08:06:09;21.90;99.90
40848;DHT22;26570;50.962;5.340;2023-08-01T08:09:00;22.10;99.90
40848;DHT22;26570;50.962;5.340;2023-08-01T08:12:25;22.30;99.90
40848;DHT22;26570;50.962;5.340;2023-08-01T08:15:57;22.40;99.90
40848;DHT22;26570;50.962;5.340;2023-08-01T08:19:19;21.90;99.90
40848;DHT22;26570;50.962;5.340;2023-08-01T08:22:13;21.30;99.90
40848;DHT22;26570;50.962;5.340;2023-08-01T08:25:27;20.70;99.90
40848;DHT22;26570;50.962;5.340;2023-08-01T08:29:04;20.70;99.90
40848;DHT22;26570;50.962;5.340;2023-08-01T08:32:18;20.90;99.90
40848;DHT22;26570;50.962;5.340;2023-08-01T08:35:37;20.80;99.90
40848;DHT22;26570;50.962;5.340;2023-08-01T08:38:32;20.90;99.90
40848;DHT22;26570;50.962;5.340;2023-08-01T08:42:01;20.70;99.90
40848;DHT22;26570;50.962;5.340;2023-08-01T08:45:11;20.70;99.90
40848;DHT22;26570;50.962;5.340;2023-08-01T08:48:13;20.60;99.90
40848;DHT22;26570;50.962;5.340;2023-08-01T08:51:11;21.30;99.90
40848;DHT22;26570;50.962;5.340;2023-08-01T08:54:26;21.90;99.90
40848;DHT22;26570;50.962;5.340;2023-08-01T08:57:46;21.90;99.90
40848;DHT22;26570;50.962;5.340;2023-08-01T09:04:50;21.50;99.90
40848;DHT22;26570;50.962;5.340;2023-08-01T09:08:13;21.30;99.90
40848;DHT22;26570;50.962;5.340;2023-08-01T09:11:09;21.60;99.90
40848;DHT22;26570;50.962;5.340;2023-08-01T09:14:02;21.80;99.90
40848;DHT22;26570;50.962;5.340;2023-08-01T09:17:06;21.90;99.90
40848;DHT22;26570;50.962;5.340;2023-08-01T09:20:13;22.60;99.90
40848;DHT22;26570;50.962;5.340;2023-08-01T09:23:41;23.20;99.90
40848;DHT22;26570;50.962;5.340;2023-08-01T09:26:52;23.30;99.90
40848;DHT22;26570;50.962;5.340;2023-08-01T09:30:27;23.10;99.90
40848;DHT22;26570;50.962;5.340;2023-08-01T09:33:25;22.90;99.90
40848;DHT22;26570;50.962;5.340;2023-08-01T09:37:07;22.20;99.90
40848;DHT22;26570;50.962;5.340;2023-08-01T09:40:16;22.70;99.90
40848;DHT22;26570;50.962;5.340;2023-08-01T09:43:34;23.30;99.90
40848;DHT22;26570;50.962;5.340;2023-08-01T09:46:39;23.00;99.90
40848;DHT22;26570;50.962;5.340;2023-08-01T09:50:19;23.00;99.90
40848;DHT22;26570;50.962;5.340;2023-08-01T09:53:16;22.70;99.90
40848;DHT22;26570;50.962;5.340;2023-08-01T09:56:10;23.40;99.90
40848;DHT22;26570;50.962;5.340;2023-08-01T09:59:11;23.40;99.90
40848;DHT22;26570;50.962;5.340;2023-08-01T10:02:35;23.50;99.90
40848;DHT22;26570;50.962;5.340;2023-08-01T10:05:31;23.30;99.90
40848;DHT22;26570;50.962;5.340;2023-08-01T10:09:29;22.80;99.90
40848;DHT22;26570;50.962;5.340;2023-08-01T10:13:03;22.60;99.90
40848;DHT22;26570;50.962;5.340;2023-08-01T10:16:30;23.30;99.90
40848;DHT22;26570;50.962;5.340;2023-08-01T10:19:26;23.20;99.90
40848;DHT22;26570;50.962;5.340;2023-08-01T10:25:54;22.90;99.90
40848;DHT22;26570;50.962;5.340;2023-08-01T10:29:05;23.00;99.90
40848;DHT22;26570;50.962;5.340;2023-08-01T10:32:12;23.20;99.90
40848;DHT22;26570;50.962;5.340;2023-08-01T10:35:47;23.60;99.90
40848;DHT22;26570;50.962;5.340;2023-08-01T10:38:54;23.50;99.90
40848;DHT22;26570;50.962;5.340;2023-08-01T10:42:05;24.00;99.90
40848;DHT22;26570;50.962;5.340;2023-08-01T10:45:31;24.30;99.90
40848;DHT22;26570;50.962;5.340;2023-08-01T10:52:42;24.50;99.90
40848;DHT22;26570;50.962;5.340;2023-08-01T10:55:39;24.30;99.90
40848;DHT22;26570;50.962;5.340;2023-08-01T10:58:30;23.70;99.90
40848;DHT22;26570;50.962;5.340;2023-08-01T11:01:22;23.70;99.90
40848;DHT22;26570;50.962;5.340;2023-08-01T11:04:20;24.00;99.90
40848;DHT22;26570;50.962;5.340;2023-08-01T11:07:27;23.90;99.90
40848;DHT22;26570;50.962;5.340;2023-08-01T11:10:20;23.60;99.90
40848;DHT22;26570;50.962;5.340;2023-08-01T11:13:23;23.80;99.90
40848;DHT22;26570;50.962;5.340;2023-08-01T11:16:22;23.60;99.90
40848;DHT22;26570;50.962;5.340;2023-08-01T11:19:20;23.20;99.90
40848;DHT22;26570;50.962;5.340;2023-08-01T11:22:11;23.20;99.90
40848;DHT22;26570;50.962;5.340;2023-08-01T11:24:59;23.20;99.90
40848;DHT22;26570;50.962;5.340;2023-08-01T11:27:55;23.50;99.90
40848;DHT22;26570;50.962;5.340;2023-08-01T11:30:54;24.10;99.90
40848;DHT22;26570;50.962;5.340;2023-08-01T11:33:55;24.10;99.90
40848;DHT22;26570;50.962;5.340;2023-08-01T11:37:22;24.00;99.90
40848;DHT22;26570;50.962;5.340;2023-08-01T11:40:38;24.10;99.90
40848;DHT22;26570;50.962;5.340;2023-08-01T11:44:02;23.90;99.90
40848;DHT22;26570;50.962;5.340;2023-08-01T11:46:51;23.70;99.90
40848;DHT22;26570;50.962;5.340;2023-08-01T11:49:46;23.90;99.90
40848;DHT22;26570;50.962;5.340;2023-08-01T11:52:35;24.10;99.90
40848;DHT22;26570;50.962;5.340;2023-08-01T11:55:29;24.30;99.90
40848;DHT22;26570;50.962;5.340;2023-08-01T11:58:32;24.30;99.90
40848;DHT22;26570;50.962;5.340;2023-08-01T12:01:23;24.50;99.90
40848;DHT22;26570;50.962;5.340;2023-08-01T12:04:39;24.50;99.90
40848;DHT22;26570;50.962;5.340;2023-08-01T12:07:29;24.50;99.90
40848;DHT22;26570;50.962;5.340;2023-08-01T12:10:47;24.30;99.90
40848;DHT22;26570;50.962;5.340;2023-08-01T12:13:37;24.20;99.90
40848;DHT22;26570;50.962;5.340;2023-08-01T12:16:26;23.70;99.90
40848;DHT22;26570;50.962;5.340;2023-08-01T12:19:18;23.60;99.90
40848;DHT22;26570;50.962;5.340;2023-08-01T12:22:09;23.60;99.90
40848;DHT22;26570;50.962;5.340;2023-08-01T12:24:58;23.60;99.90
40848;DHT22;26570;50.962;5.340;2023-08-01T12:28:10;23.40;99.90
40848;DHT22;26570;50.962;5.340;2023-08-01T12:31:03;23.30;99.90
40848;DHT22;26570;50.962;5.340;2023-08-01T12:33:53;23.50;99.90
40848;DHT22;26570;50.962;5.340;2023-08-01T12:37:09;23.40;99.90
40848;DHT22;26570;50.962;5.340;2023-08-01T12:40:06;23.40;99.90
40848;DHT22;26570;50.962;5.340;2023-08-01T12:42:54;23.50;99.90
40848;DHT22;26570;50.962;5.340;2023-08-01T12:45:44;23.40;99.90
40848;DHT22;26570;50.962;5.340;2023-08-01T12:48:38;23.30;99.90
40848;DHT22;26570;50.962;5.340;2023-08-01T12:51:52;23.30;99.90
40848;DHT22;26570;50.962;5.340;2023-08-01T12:54:47;22.90;99.90
40848;DHT22;26570;50.962;5.340;2023-08-01T12:57:41;23.00;99.90
40848;DHT22;26570;50.962;5.340;2023-08-01T13:00:32;23.60;99.90
40848;DHT22;26570;50.962;5.340;2023-08-01T13:03:43;24.10;99.90
40848;DHT22;26570;50.962;5.340;2023-08-01T13:06:34;24.20;99.90
40848;DHT22;26570;50.962;5.340;2023-08-01T13:09:26;24.20;99.90
40848;DHT22;26570;50.962;5.340;2023-08-01T13:12:40;23.80;99.90
40848;DHT22;26570;50.962;5.340;2023-08-01T13:15:28;23.60;99.90
40848;DHT22;26570;50.962;5.340;2023-08-01T13:18:19;23.70;99.90
40848;DHT22;26570;50.962;5.340;2023-08-01T13:21:12;23.60;99.90
40848;DHT22;26570;50.962;5.340;2023-08-01T13:24:02;23.20;99.90
40848;DHT22;26570;50.962;5.340;2023-08-01T13:26:54;23.20;99.90
40848;DHT22;26570;50.962;5.340;2023-08-01T13:29:45;23.30;99.90
40848;DHT22;26570;50.962;5.340;2023-08-01T13:32:46;23.70;99.90
40848;DHT22;26570;50.962;5.340;2023-08-01T13:35:45;23.70;99.90
40848;DHT22;26570;50.962;5.340;2023-08-01T13:38:39;23.50;99.90
40848;DHT22;26570;50.962;5.340;2023-08-01T13:41:29;23.20;99.90
40848;DHT22;26570;50.962;5.340;2023-08-01T13:44:19;22.90;99.90
40848;DHT22;26570;50.962;5.340;2023-08-01T13:47:10;22.70;99.90
40848;DHT22;26570;50.962;5.340;2023-08-01T13:49:57;22.80;99.90
40848;DHT22;26570;50.962;5.340;2023-08-01T13:52:48;23.00;99.90
40848;DHT22;26570;50.962;5.340;2023-08-01T13:55:39;23.30;99.90
40848;DHT22;26570;50.962;5.340;2023-08-01T13:58:27;23.30;99.90
40848;DHT22;26570;50.962;5.340;2023-08-01T14:01:21;23.10;99.90
40848;DHT22;26570;50.962;5.340;2023-08-01T14:04:13;22.90;99.90
40848;DHT22;26570;50.962;5.340;2023-08-01T14:07:06;22.70;99.90
40848;DHT22;26570;50.962;5.340;2023-08-01T14:09:56;22.70;99.90
40848;DHT22;26570;50.962;5.340;2023-08-01T14:13:16;22.50;99.90
40848;DHT22;26570;50.962;5.340;2023-08-01T14:16:05;22.80;99.90
40848;DHT22;26570;50.962;5.340;2023-08-01T14:19:00;23.00;99.90
40848;DHT22;26570;50.962;5.340;2023-08-01T14:21:50;23.30;99.90
40848;DHT22;26570;50.962;5.340;2023-08-01T14:25:19;23.70;99.90
40848;DHT22;26570;50.962;5.340;2023-08-01T14:28:10;24.10;99.90
40848;DHT22;26570;50.962;5.340;2023-08-01T14:31:03;23.90;99.90
40848;DHT22;26570;50.962;5.340;2023-08-01T14:34:01;23.40;99.90
40848;DHT22;26570;50.962;5.340;2023-08-01T14:36:50;23.20;99.90
40848;DHT22;26570;50.962;5.340;2023-08-01T14:42:51;23.20;99.90
40848;DHT22;26570;50.962;5.340;2023-08-01T14:45:42;23.10;99.90
40848;DHT22;26570;50.962;5.340;2023-08-01T14:48:37;22.90;99.90
40848;DHT22;26570;50.962;5.340;2023-08-01T14:51:27;22.70;99.90
40848;DHT22;26570;50.962;5.340;2023-08-01T14:54:26;22.70;99.90
40848;DHT22;26570;50.962;5.340;2023-08-01T14:57:36;22.70;99.90
40848;DHT22;26570;50.962;5.340;2023-08-01T15:00:36;22.70;99.90
40848;DHT22;26570;50.962;5.340;2023-08-01T15:03:24;22.50;99.90
40848;DHT22;26570;50.962;5.340;2023-08-01T15:06:18;22.10;99.90
40848;DHT22;26570;50.962;5.340;2023-08-01T15:09:46;22.20;99.90
40848;DHT22;26570;50.962;5.340;2023-08-01T15:12:39;22.00;99.90
40848;DHT22;26570;50.962;5.340;2023-08-01T15:15:27;21.70;99.90
40848;DHT22;26570;50.962;5.340;2023-08-01T15:18:21;21.60;99.90
40848;DHT22;26570;50.962;5.340;2023-08-01T15:21:15;21.80;99.90
40848;DHT22;26570;50.962;5.340;2023-08-01T15:24:14;21.80;99.90
40848;DHT22;26570;50.962;5.340;2023-08-01T15:27:24;21.80;99.90
40848;DHT22;26570;50.962;5.340;2023-08-01T15:30:13;21.60;99.90
40848;DHT22;26570;50.962;5.340;2023-08-01T15:33:03;21.70;99.90
40848;DHT22;26570;50.962;5.340;2023-08-01T15:36:17;21.50;99.90
40848;DHT22;26570;50.962;5.340;2023-08-01T15:39:29;21.10;99.90
40848;DHT22;26570;50.962;5.340;2023-08-01T15:42:30;20.40;99.90
40848;DHT22;26570;50.962;5.340;2023-08-01T15:45:41;20.50;99.90
40848;DHT22;26570;50.962;5.340;2023-08-01T15:49:01;20.60;99.90
40848;DHT22;26570;50.962;5.340;2023-08-01T15:52:00;20.40;99.90
40848;DHT22;26570;50.962;5.340;2023-08-01T15:55:14;20.60;99.90
40848;DHT22;26570;50.962;5.340;2023-08-01T15:58:05;20.40;99.90
40848;DHT22;26570;50.962;5.340;2023-08-01T16:00:56;20.10;99.90
40848;DHT22;26570;50.962;5.340;2023-08-01T16:03:50;20.20;99.90
40848;DHT22;26570;50.962;5.340;2023-08-01T16:06:45;20.30;99.90
40848;DHT22;26570;50.962;5.340;2023-08-01T16:10:04;20.40;99.90
40848;DHT22;26570;50.962;5.340;2023-08-01T16:13:22;20.40;99.90
40848;DHT22;26570;50.962;5.340;2023-08-01T16:16:11;20.60;99.90
40848;DHT22;26570;50.962;5.340;2023-08-01T16:19:06;20.60;99.90
40848;DHT22;26570;50.962;5.340;2023-08-01T16:22:00;20.80;99.90
40848;DHT22;26570;50.962;5.340;2023-08-01T16:25:07;21.10;99.90
40848;DHT22;26570;50.962;5.340;2023-08-01T16:28:05;20.40;99.90
40848;DHT22;26570;50.962;5.340;2023-08-01T16:30:57;20.10;99.90
40848;DHT22;26570;50.962;5.340;2023-08-01T16:33:57;19.90;99.90
40848;DHT22;26570;50.962;5.340;2023-08-01T16:36:48;19.70;99.90
40848;DHT22;26570;50.962;5.340;2023-08-01T16:39:38;19.60;99.90
40848;DHT22;26570;50.962;5.340;2023-08-01T16:42:56;19.50;99.90
40848;DHT22;26570;50.962;5.340;2023-08-01T16:45:47;19.70;99.90
40848;DHT22;26570;50.962;5.340;2023-08-01T16:48:41;19.90;99.90
40848;DHT22;26570;50.962;5.340;2023-08-01T16:51:55;20.10;99.90
40848;DHT22;26570;50.962;5.340;2023-08-01T16:54:49;20.00;99.90
40848;DHT22;26570;50.962;5.340;2023-08-01T16:57:38;20.10;99.90
40848;DHT22;26570;50.962;5.340;2023-08-01T17:00:50;20.20;99.90
40848;DHT22;26570;50.962;5.340;2023-08-01T17:03:38;20.20;99.90
40848;DHT22;26570;50.962;5.340;2023-08-01T17:06:29;20.30;99.90
40848;DHT22;26570;50.962;5.340;2023-08-01T17:09:42;20.30;99.90
40848;DHT22;26570;50.962;5.340;2023-08-01T17:12:34;20.40;99.90
40848;DHT22;26570;50.962;5.340;2023-08-01T17:15:31;20.30;99.90
40848;DHT22;26570;50.962;5.340;2023-08-01T17:18:59;20.00;99.90
40848;DHT22;26570;50.962;5.340;2023-08-01T17:22:12;19.40;99.90
40848;DHT22;26570;50.962;5.340;2023-08-01T17:25:14;19.20;99.90
40848;DHT22;26570;50.962;5.340;2023-08-01T17:28:12;19.30;99.90
40848;DHT22;26570;50.962;5.340;2023-08-01T17:31:06;19.40;99.90
40848;DHT22;26570;50.962;5.340;2023-08-01T17:34:24;19.40;99.90
40848;DHT22;26570;50.962;5.340;2023-08-01T17:37:12;19.40;99.90
40848;DHT22;26570;50.962;5.340;2023-08-01T17:40:11;19.50;99.90
40848;DHT22;26570;50.962;5.340;2023-08-01T17:43:22;19.60;99.90
40848;DHT22;26570;50.962;5.340;2023-08-01T17:46:39;19.50;99.90
40848;DHT22;26570;50.962;5.340;2023-08-01T17:49:31;19.30;99.90
40848;DHT22;26570;50.962;5.340;2023-08-01T17:52:50;19.30;99.90
40848;DHT22;26570;50.962;5.340;2023-08-01T17:55:58;19.30;99.90
40848;DHT22;26570;50.962;5.340;2023-08-01T17:58:57;19.40;99.90
40848;DHT22;26570;50.962;5.340;2023-08-01T18:01:47;19.40;99.90
40848;DHT22;26570;50.962;5.340;2023-08-01T18:04:43;19.40;99.90
40848;DHT22;26570;50.962;5.340;2023-08-01T18:07:58;19.40;99.90
40848;DHT22;26570;50.962;5.340;2023-08-01T18:11:14;19.50;99.90
40848;DHT22;26570;50.962;5.340;2023-08-01T18:14:24;19.50;99.90
40848;DHT22;26570;50.962;5.340;2023-08-01T18:17:35;19.50;99.90
40848;DHT22;26570;50.962;5.340;2023-08-01T18:20:29;19.40;99.90
40848;DHT22;26570;50.962;5.340;2023-08-01T18:23:25;19.60;99.90
40848;DHT22;26570;50.962;5.340;2023-08-01T18:26:41;19.60;99.90
40848;DHT22;26570;50.962;5.340;2023-08-01T18:29:41;18.90;99.90
40848;DHT22;26570;50.962;5.340;2023-08-01T18:33:10;18.70;99.90
40848;DHT22;26570;50.962;5.340;2023-08-01T18:36:05;18.60;99.90
40848;DHT22;26570;50.962;5.340;2023-08-01T18:38:54;18.60;99.90
40848;DHT22;26570;50.962;5.340;2023-08-01T18:42:27;18.60;99.90
40848;DHT22;26570;50.962;5.340;2023-08-01T18:45:45;18.60;99.90
40848;DHT22;26570;50.962;5.340;2023-08-01T18:48:50;18.60;99.90
40848;DHT22;26570;50.962;5.340;2023-08-01T18:51:53;18.60;99.90
40848;DHT22;26570;50.962;5.340;2023-08-01T18:54:50;18.60;99.90
40848;DHT22;26570;50.962;5.340;2023-08-01T18:57:48;18.30;99.90
40848;DHT22;26570;50.962;5.340;2023-08-01T19:00:43;18.40;99.90
40848;DHT22;26570;50.962;5.340;2023-08-01T19:03:31;18.20;99.90
40848;DHT22;26570;50.962;5.340;2023-08-01T19:06:57;18.20;99.90
40848;DHT22;26570;50.962;5.340;2023-08-01T19:09:55;18.20;99.90
40848;DHT22;26570;50.962;5.340;2023-08-01T19:13:16;18.20;99.90
40848;DHT22;26570;50.962;5.340;2023-08-01T19:16:07;18.20;99.90
40848;DHT22;26570;50.962;5.340;2023-08-01T19:19:29;18.20;99.90
40848;DHT22;26570;50.962;5.340;2023-08-01T19:22:46;18.20;99.90
40848;DHT22;26570;50.962;5.340;2023-08-01T19:29:16;18.10;99.90
40848;DHT22;26570;50.962;5.340;2023-08-01T19:32:35;17.90;99.90
40848;DHT22;26570;50.962;5.340;2023-08-01T19:35:23;18.00;99.90
40848;DHT22;26570;50.962;5.340;2023-08-01T19:38:27;17.90;99.90
40848;DHT22;26570;50.962;5.340;2023-08-01T19:41:14;17.90;99.90
40848;DHT22;26570;50.962;5.340;2023-08-01T19:44:43;17.80;99.90
40848;DHT22;26570;50.962;5.340;2023-08-01T19:47:33;18.00;99.90
40848;DHT22;26570;50.962;5.340;2023-08-01T19:50:29;17.80;99.90
40848;DHT22;26570;50.962;5.340;2023-08-01T19:53:34;17.90;99.90
40848;DHT22;26570;50.962;5.340;2023-08-01T20:00:13;17.80;99.90
40848;DHT22;26570;50.962;5.340;2023-08-01T20:07:46;17.80;99.90
40848;DHT22;26570;50.962;5.340;2023-08-01T20:29:46;17.70;99.90
40848;DHT22;26570;50.962;5.340;2023-08-01T20:32:40;17.60;99.90
40848;DHT22;26570;50.962;5.340;2023-08-01T20:36:11;17.70;99.90
40848;DHT22;26570;50.962;5.340;2023-08-01T20:39:38;17.70;99.90
40848;DHT22;26570;50.962;5.340;2023-08-01T20:42:37;17.80;99.90
40848;DHT22;26570;50.962;5.340;2023-08-01T20:45:27;17.60;99.90
40848;DHT22;26570;50.962;5.340;2023-08-01T20:48:26;17.70;99.90
40848;DHT22;26570;50.962;5.340;2023-08-01T21:01:51;17.80;99.90
40848;DHT22;26570;50.962;5.340;2023-08-01T21:05:06;17.90;99.90
40848;DHT22;26570;50.962;5.340;2023-08-01T21:08:06;17.90;99.90
40848;DHT22;26570;50.962;5.340;2023-08-01T21:11:18;18.10;99.90
40848;DHT22;26570;50.962;5.340;2023-08-01T21:14:16;18.30;99.90
40848;DHT22;26570;50.962;5.340;2023-08-01T21:21:19;18.00;99.90
40848;DHT22;26570;50.962;5.340;2023-08-01T21:24:14;18.10;99.90
40848;DHT22;26570;50.962;5.340;2023-08-01T21:29:48;17.80;99.90
40848;DHT22;26570;50.962;5.340;2023-08-01T21:32:42;17.60;99.90
40848;DHT22;26570;50.962;5.340;2023-08-01T21:35:33;17.70;99.90
40848;DHT22;26570;50.962;5.340;2023-08-01T21:38:25;17.60;99.90
40848;DHT22;26570;50.962;5.340;2023-08-01T21:41:26;17.70;99.90
40848;DHT22;26570;50.962;5.340;2023-08-01T21:44:14;17.60;99.90
40848;DHT22;26570;50.962;5.340;2023-08-01T21:47:10;17.60;99.90